IBE0922 GOBD-LEMD
Flight info
| Callsign | IBE0922 |
|---|---|
| Flight time | N/A |
| Altitude | 35000 |
| Route | SAKLI1B SAKLI UR975 ECHED/N0452F360 DCT ADUBI DCT SVL N857 HIJ DCT PARKA Z165 SOTUK |
| Aircraft | A321/M-SDE3FGHIRWY/LB1 |
Departure
| Time | 2026-04-24 19:54 |
|---|---|
| Airport | Blaise Diagne International Airport (GOBD) |
Arrival
| Time | N/A |
|---|---|
| Airport | Adolfo Suárez Madrid–Barajas Airport (LEMD) |
| Time | Latitude | Longitude | Altitude | Speed | Heading |
|---|---|---|---|---|---|
| 2026-04-24 19:38 | 14.67094 | -17.06858 | 294 ft | 0 kts | 82° |
| 2026-04-24 19:45 | 14.67094 | -17.06859 | 294 ft | 1 kts | 82° |
| 2026-04-24 19:45 | 14.67092 | -17.06874 | 295 ft | 3 kts | 81° |
| 2026-04-24 19:45 | 14.67088 | -17.06895 | 295 ft | 3 kts | 81° |
| 2026-04-24 19:46 | 14.67085 | -17.06916 | 294 ft | 3 kts | 80° |
| 2026-04-24 19:46 | 14.67082 | -17.06936 | 299 ft | 3 kts | 82° |
| 2026-04-24 19:46 | 14.67080 | -17.06949 | 294 ft | 0 kts | 85° |
| 2026-04-24 19:49 | 14.67061 | -17.06941 | 294 ft | 5 kts | 202° |
| 2026-04-24 19:49 | 14.67061 | -17.07081 | 296 ft | 12 kts | 233° |
| 2026-04-24 19:50 | 14.66655 | -17.07090 | 297 ft | 28 kts | 180° |
| 2026-04-24 19:50 | 14.66464 | -17.07088 | 298 ft | 27 kts | 179° |
| 2026-04-24 19:51 | 14.66121 | -17.07083 | 302 ft | 23 kts | 179° |
| 2026-04-24 19:51 | 14.65969 | -17.07081 | 302 ft | 21 kts | 179° |
| 2026-04-24 19:52 | 14.65704 | -17.07079 | 304 ft | 17 kts | 180° |
| 2026-04-24 19:52 | 14.65592 | -17.07079 | 305 ft | 15 kts | 180° |
| 2026-04-24 19:52 | 14.65531 | -17.07123 | 305 ft | 11 kts | 260° |
| 2026-04-24 19:52 | 14.65529 | -17.07214 | 305 ft | 11 kts | 271° |
| 2026-04-24 19:53 | 14.65555 | -17.07261 | 305 ft | 7 kts | 329° |
| 2026-04-24 19:53 | 14.65602 | -17.07267 | 306 ft | 7 kts | 357° |
| 2026-04-24 19:53 | 14.66220 | -17.07275 | 299 ft | 103 kts | 359° |
| 2026-04-24 19:54 | 14.67113 | -17.07285 | 296 ft | 151 kts | 359° |
| 2026-04-24 19:54 | 14.68273 | -17.07300 | 533 ft | 169 kts | 359° |
| 2026-04-24 19:54 | 14.69415 | -17.07317 | 1265 ft | 163 kts | 359° |
| 2026-04-24 19:54 | 14.70573 | -17.07327 | 1694 ft | 173 kts | 359° |
| 2026-04-24 19:55 | 14.71423 | -17.07334 | 1786 ft | 188 kts | 359° |
| 2026-04-24 19:55 | 14.73272 | -17.07349 | 1978 ft | 214 kts | 359° |
| 2026-04-24 19:55 | 14.74843 | -17.07362 | 2087 ft | 238 kts | 359° |
| 2026-04-24 19:55 | 14.76552 | -17.07378 | 2504 ft | 250 kts | 359° |
| 2026-04-24 19:56 | 14.78304 | -17.07395 | 3163 ft | 252 kts | 359° |
| 2026-04-24 19:56 | 14.80063 | -17.07409 | 3803 ft | 254 kts | 359° |
| 2026-04-24 19:56 | 14.81849 | -17.07421 | 4359 ft | 259 kts | 359° |
| 2026-04-24 19:56 | 14.83652 | -17.07267 | 4874 ft | 264 kts | 14° |
| 2026-04-24 19:57 | 14.85327 | -17.06439 | 5364 ft | 271 kts | 29° |
| 2026-04-24 19:57 | 14.86952 | -17.05421 | 5890 ft | 275 kts | 30° |
| 2026-04-24 19:57 | 14.88594 | -17.04376 | 6395 ft | 279 kts | 30° |
| 2026-04-24 19:57 | 14.90254 | -17.03317 | 6901 ft | 282 kts | 30° |
| 2026-04-24 19:58 | 14.91930 | -17.02246 | 7404 ft | 285 kts | 30° |
| 2026-04-24 19:58 | 14.93622 | -17.01163 | 7893 ft | 287 kts | 30° |
| 2026-04-24 19:58 | 14.95307 | -17.00089 | 8367 ft | 290 kts | 30° |
| 2026-04-24 19:58 | 14.97054 | -16.98979 | 8828 ft | 292 kts | 30° |
| 2026-04-24 19:59 | 14.98770 | -16.97888 | 9285 ft | 294 kts | 30° |
| 2026-04-24 19:59 | 15.00519 | -16.96778 | 9719 ft | 297 kts | 31° |
| 2026-04-24 19:59 | 15.02284 | -16.95655 | 10147 ft | 300 kts | 31° |
| 2026-04-24 19:59 | 15.04073 | -16.94517 | 10617 ft | 303 kts | 31° |
| 2026-04-24 20:00 | 15.05910 | -16.93347 | 10775 ft | 318 kts | 31° |
| 2026-04-24 20:00 | 15.07836 | -16.92120 | 10906 ft | 333 kts | 31° |
| 2026-04-24 20:00 | 15.09854 | -16.90839 | 11036 ft | 346 kts | 31° |
| 2026-04-24 20:00 | 15.11945 | -16.89511 | 11177 ft | 359 kts | 31° |
| 2026-04-24 20:01 | 15.14091 | -16.88149 | 11507 ft | 365 kts | 31° |
| 2026-04-24 20:01 | 15.16264 | -16.86768 | 11938 ft | 368 kts | 31° |
| 2026-04-24 20:01 | 15.18455 | -16.85374 | 12394 ft | 371 kts | 31° |
| 2026-04-24 20:01 | 15.20659 | -16.83969 | 12856 ft | 373 kts | 31° |
| 2026-04-24 20:02 | 15.22128 | -16.83032 | 13145 ft | 375 kts | 31° |
| 2026-04-24 20:02 | 15.25114 | -16.81128 | 13761 ft | 378 kts | 31° |
| 2026-04-24 20:02 | 15.27362 | -16.79696 | 14208 ft | 381 kts | 31° |
| 2026-04-24 20:02 | 15.29624 | -16.78254 | 14646 ft | 383 kts | 31° |
| 2026-04-24 20:03 | 15.31898 | -16.76806 | 15077 ft | 385 kts | 30° |
| 2026-04-24 20:03 | 15.34188 | -16.75349 | 15488 ft | 387 kts | 30° |
| 2026-04-24 20:03 | 15.36489 | -16.73885 | 15888 ft | 389 kts | 30° |
| 2026-04-24 20:03 | 15.38804 | -16.72412 | 16290 ft | 391 kts | 30° |
| 2026-04-24 20:04 | 15.41129 | -16.70932 | 16676 ft | 393 kts | 30° |
| 2026-04-24 20:04 | 15.43466 | -16.69440 | 17044 ft | 395 kts | 29° |
| 2026-04-24 20:04 | 15.45815 | -16.67940 | 17417 ft | 397 kts | 29° |
| 2026-04-24 20:04 | 15.48142 | -16.66455 | 17767 ft | 399 kts | 29° |
| 2026-04-24 20:05 | 15.50511 | -16.64942 | 18119 ft | 401 kts | 29° |
| 2026-04-24 20:05 | 15.52885 | -16.63425 | 18438 ft | 403 kts | 29° |
| 2026-04-24 20:05 | 15.55281 | -16.61894 | 18735 ft | 405 kts | 29° |
| 2026-04-24 20:05 | 15.57682 | -16.60357 | 19022 ft | 407 kts | 29° |
| 2026-04-24 20:06 | 15.60096 | -16.58810 | 19301 ft | 408 kts | 29° |
| 2026-04-24 20:06 | 15.62518 | -16.57258 | 19562 ft | 411 kts | 29° |
| 2026-04-24 20:06 | 15.64954 | -16.55701 | 19820 ft | 412 kts | 28° |
| 2026-04-24 20:06 | 15.67404 | -16.54136 | 20076 ft | 414 kts | 28° |
| 2026-04-24 20:07 | 15.69033 | -16.53095 | 20252 ft | 415 kts | 28° |
| 2026-04-24 20:07 | 15.72328 | -16.50982 | 20585 ft | 418 kts | 28° |
| 2026-04-24 20:07 | 15.74809 | -16.49390 | 20825 ft | 420 kts | 28° |
| 2026-04-24 20:07 | 15.77296 | -16.47794 | 21066 ft | 422 kts | 28° |
| 2026-04-24 20:08 | 15.79800 | -16.46189 | 21322 ft | 423 kts | 28° |
| 2026-04-24 20:08 | 15.82309 | -16.44580 | 21569 ft | 425 kts | 28° |
| 2026-04-24 20:08 | 15.84833 | -16.42963 | 21797 ft | 426 kts | 28° |
| 2026-04-24 20:08 | 15.87358 | -16.41340 | 22024 ft | 428 kts | 28° |
| 2026-04-24 20:09 | 15.89893 | -16.39712 | 22256 ft | 430 kts | 28° |
| 2026-04-24 20:09 | 15.92440 | -16.38078 | 22488 ft | 431 kts | 28° |
| 2026-04-24 20:09 | 15.94994 | -16.36434 | 22713 ft | 433 kts | 28° |
| 2026-04-24 20:09 | 15.97560 | -16.34783 | 22939 ft | 434 kts | 28° |
| 2026-04-24 20:10 | 16.00100 | -16.33151 | 23166 ft | 435 kts | 28° |
| 2026-04-24 20:10 | 16.02684 | -16.31495 | 23396 ft | 437 kts | 28° |
| 2026-04-24 20:10 | 16.05281 | -16.29830 | 23611 ft | 438 kts | 28° |
| 2026-04-24 20:10 | 16.07882 | -16.28162 | 23823 ft | 440 kts | 28° |
| 2026-04-24 20:11 | 16.10489 | -16.26490 | 24023 ft | 442 kts | 28° |
| 2026-04-24 20:11 | 16.13108 | -16.24808 | 24237 ft | 443 kts | 28° |
| 2026-04-24 20:11 | 16.15741 | -16.23116 | 24449 ft | 445 kts | 28° |
| 2026-04-24 20:11 | 16.18379 | -16.21420 | 24653 ft | 446 kts | 28° |
| 2026-04-24 20:12 | 16.21021 | -16.19719 | 24850 ft | 447 kts | 28° |
| 2026-04-24 20:12 | 16.23670 | -16.18011 | 25045 ft | 449 kts | 28° |
| 2026-04-24 20:12 | 16.26328 | -16.16295 | 25221 ft | 450 kts | 28° |
| 2026-04-24 20:12 | 16.28992 | -16.14574 | 25394 ft | 452 kts | 28° |
| 2026-04-24 20:13 | 16.31636 | -16.12868 | 25572 ft | 453 kts | 27° |
| 2026-04-24 20:13 | 16.34316 | -16.11139 | 25754 ft | 454 kts | 27° |
| 2026-04-24 20:13 | 16.37009 | -16.09403 | 25932 ft | 456 kts | 27° |
| 2026-04-24 20:13 | 16.39709 | -16.07660 | 26105 ft | 457 kts | 27° |
| 2026-04-24 20:14 | 16.42418 | -16.05912 | 26278 ft | 458 kts | 27° |
| 2026-04-24 20:14 | 16.45133 | -16.04160 | 26437 ft | 460 kts | 27° |
| 2026-04-24 20:14 | 16.47855 | -16.02403 | 26600 ft | 461 kts | 27° |
| 2026-04-24 20:14 | 16.50587 | -16.00633 | 26751 ft | 463 kts | 27° |
| 2026-04-24 20:15 | 16.53320 | -15.98862 | 26909 ft | 464 kts | 27° |
| 2026-04-24 20:15 | 16.56069 | -15.97084 | 27060 ft | 465 kts | 27° |
| 2026-04-24 20:15 | 16.58824 | -15.95305 | 27215 ft | 467 kts | 27° |
| 2026-04-24 20:15 | 16.61585 | -15.93522 | 27367 ft | 468 kts | 27° |
| 2026-04-24 20:16 | 16.64357 | -15.91727 | 27528 ft | 469 kts | 27° |
| 2026-04-24 20:16 | 16.67124 | -15.89936 | 27683 ft | 470 kts | 27° |
| 2026-04-24 20:16 | 16.69917 | -15.88129 | 27825 ft | 472 kts | 27° |
| 2026-04-24 20:16 | 16.72676 | -15.86347 | 27970 ft | 473 kts | 26° |
| 2026-04-24 20:17 | 16.75477 | -15.84533 | 28107 ft | 474 kts | 26° |
| 2026-04-24 20:17 | 16.81089 | -15.80884 | 28376 ft | 476 kts | 26° |
| 2026-04-24 20:17 | 16.83908 | -15.79051 | 28491 ft | 478 kts | 26° |
| 2026-04-24 20:18 | 16.89556 | -15.75385 | 28748 ft | 479 kts | 26° |
| 2026-04-24 20:18 | 16.92390 | -15.73545 | 28876 ft | 480 kts | 26° |
| 2026-04-24 20:18 | 16.95226 | -15.71700 | 29004 ft | 481 kts | 26° |
| 2026-04-24 20:19 | 16.98068 | -15.69849 | 29125 ft | 481 kts | 26° |
| 2026-04-24 20:19 | 17.00910 | -15.67998 | 29251 ft | 482 kts | 26° |
| 2026-04-24 20:19 | 17.06602 | -15.64286 | 29500 ft | 483 kts | 26° |
| 2026-04-24 20:20 | 17.11344 | -15.61205 | 29706 ft | 483 kts | 26° |
| 2026-04-24 20:20 | 17.14199 | -15.59350 | 29828 ft | 483 kts | 25° |
| 2026-04-24 20:20 | 17.17057 | -15.57488 | 29953 ft | 483 kts | 25° |
| 2026-04-24 20:21 | 17.19912 | -15.55626 | 30077 ft | 484 kts | 25° |
| 2026-04-24 20:21 | 17.22767 | -15.53763 | 30203 ft | 484 kts | 25° |
| 2026-04-24 20:21 | 17.25626 | -15.51897 | 30328 ft | 484 kts | 25° |
| 2026-04-24 20:21 | 17.28482 | -15.50033 | 30455 ft | 484 kts | 25° |
| 2026-04-24 20:22 | 17.31339 | -15.48169 | 30580 ft | 484 kts | 25° |
| 2026-04-24 20:22 | 17.34196 | -15.46302 | 30705 ft | 484 kts | 25° |
| 2026-04-24 20:22 | 17.37052 | -15.44436 | 30832 ft | 484 kts | 25° |
| 2026-04-24 20:22 | 17.39908 | -15.42568 | 30956 ft | 484 kts | 25° |
| 2026-04-24 20:23 | 17.42763 | -15.40700 | 31081 ft | 484 kts | 25° |
| 2026-04-24 20:23 | 17.45588 | -15.38851 | 31204 ft | 484 kts | 25° |
| 2026-04-24 20:23 | 17.48444 | -15.36979 | 31330 ft | 484 kts | 25° |
| 2026-04-24 20:23 | 17.51299 | -15.35110 | 31454 ft | 484 kts | 25° |
| 2026-04-24 20:24 | 17.54158 | -15.33238 | 31587 ft | 484 kts | 25° |
| 2026-04-24 20:24 | 17.57015 | -15.31371 | 31709 ft | 484 kts | 25° |
| 2026-04-24 20:24 | 17.59868 | -15.29504 | 31848 ft | 484 kts | 25° |
| 2026-04-24 20:24 | 17.62724 | -15.27635 | 31972 ft | 483 kts | 25° |
| 2026-04-24 20:25 | 17.65562 | -15.25744 | 32130 ft | 484 kts | 26° |
| 2026-04-24 20:25 | 17.68347 | -15.23757 | 32268 ft | 485 kts | 28° |
| 2026-04-24 20:25 | 17.71094 | -15.21680 | 32403 ft | 486 kts | 30° |
| 2026-04-24 20:25 | 17.73803 | -15.19563 | 32533 ft | 486 kts | 30° |
| 2026-04-24 20:26 | 17.76510 | -15.17431 | 32669 ft | 486 kts | 30° |
| 2026-04-24 20:26 | 17.79219 | -15.15317 | 32806 ft | 485 kts | 29° |
| 2026-04-24 20:26 | 17.81939 | -15.13228 | 32940 ft | 484 kts | 29° |
| 2026-04-24 20:26 | 17.84670 | -15.11159 | 33074 ft | 484 kts | 28° |
| 2026-04-24 20:27 | 17.87408 | -15.09102 | 33208 ft | 483 kts | 28° |
| 2026-04-24 20:27 | 17.90144 | -15.07052 | 33331 ft | 483 kts | 28° |
| 2026-04-24 20:27 | 17.92876 | -15.05000 | 33456 ft | 483 kts | 28° |
| 2026-04-24 20:27 | 17.95606 | -15.02939 | 33582 ft | 483 kts | 28° |
| 2026-04-24 20:28 | 17.98329 | -15.00878 | 33717 ft | 482 kts | 28° |
| 2026-04-24 20:28 | 18.01046 | -14.98817 | 33868 ft | 481 kts | 28° |
| 2026-04-24 20:28 | 18.03758 | -14.96760 | 33998 ft | 481 kts | 28° |
| 2026-04-24 20:28 | 18.06470 | -14.94702 | 34124 ft | 481 kts | 28° |
| 2026-04-24 20:29 | 18.11892 | -14.90589 | 34373 ft | 480 kts | 28° |
| 2026-04-24 20:29 | 18.14601 | -14.88537 | 34498 ft | 480 kts | 28° |
| 2026-04-24 20:29 | 18.17318 | -14.86482 | 34621 ft | 480 kts | 28° |
| 2026-04-24 20:30 | 18.19993 | -14.84455 | 34777 ft | 479 kts | 28° |
| 2026-04-24 20:30 | 18.22695 | -14.82402 | 34855 ft | 479 kts | 28° |
| 2026-04-24 20:30 | 18.28092 | -14.78300 | 34858 ft | 478 kts | 28° |
| 2026-04-24 20:31 | 18.33481 | -14.74202 | 34864 ft | 478 kts | 28° |
| 2026-04-24 20:31 | 18.38872 | -14.70092 | 34896 ft | 478 kts | 28° |
| 2026-04-24 20:32 | 18.44256 | -14.65983 | 34896 ft | 478 kts | 28° |
| 2026-04-24 20:32 | 18.49644 | -14.61880 | 34897 ft | 478 kts | 28° |
| 2026-04-24 20:33 | 18.55040 | -14.57768 | 34901 ft | 478 kts | 28° |
| 2026-04-24 20:33 | 18.60428 | -14.53650 | 34904 ft | 478 kts | 28° |
| 2026-04-24 20:34 | 18.65812 | -14.49524 | 34904 ft | 479 kts | 28° |
| 2026-04-24 20:34 | 18.71214 | -14.45399 | 34907 ft | 479 kts | 28° |
| 2026-04-24 20:35 | 18.76619 | -14.41275 | 34909 ft | 480 kts | 28° |
| 2026-04-24 20:35 | 18.81986 | -14.37162 | 34913 ft | 480 kts | 28° |
| 2026-04-24 20:36 | 18.87388 | -14.33010 | 34915 ft | 480 kts | 28° |
| 2026-04-24 20:36 | 18.92786 | -14.28859 | 34915 ft | 480 kts | 28° |
| 2026-04-24 20:37 | 18.98189 | -14.24705 | 34916 ft | 480 kts | 28° |
| 2026-04-24 20:37 | 19.03588 | -14.20552 | 34918 ft | 480 kts | 28° |
| 2026-04-24 20:38 | 19.08989 | -14.16406 | 34918 ft | 480 kts | 27° |
| 2026-04-24 20:38 | 19.14392 | -14.12255 | 34925 ft | 480 kts | 28° |
| 2026-04-24 20:39 | 19.19793 | -14.08094 | 34927 ft | 480 kts | 28° |
| 2026-04-24 20:39 | 19.25195 | -14.03924 | 34927 ft | 480 kts | 27° |
| 2026-04-24 20:40 | 19.30585 | -13.99755 | 34927 ft | 480 kts | 27° |
| 2026-04-24 20:40 | 19.35942 | -13.95613 | 34924 ft | 479 kts | 27° |
| 2026-04-24 20:41 | 19.41335 | -13.91442 | 34923 ft | 480 kts | 27° |
| 2026-04-24 20:41 | 19.46722 | -13.87276 | 34922 ft | 479 kts | 27° |
| 2026-04-24 20:42 | 19.52115 | -13.83110 | 34920 ft | 479 kts | 27° |
| 2026-04-24 20:42 | 19.57502 | -13.78941 | 34920 ft | 479 kts | 27° |
| 2026-04-24 20:43 | 19.62881 | -13.74762 | 34919 ft | 479 kts | 27° |
| 2026-04-24 20:43 | 19.68254 | -13.70587 | 34924 ft | 478 kts | 27° |
| 2026-04-24 20:44 | 19.73623 | -13.66424 | 34924 ft | 478 kts | 27° |
| 2026-04-24 20:44 | 19.78950 | -13.62282 | 34922 ft | 478 kts | 27° |
| 2026-04-24 20:45 | 19.84312 | -13.58105 | 34924 ft | 478 kts | 27° |
| 2026-04-24 20:45 | 19.89678 | -13.53922 | 34923 ft | 478 kts | 27° |
| 2026-04-24 20:46 | 19.95035 | -13.49735 | 34923 ft | 478 kts | 27° |
| 2026-04-24 20:46 | 20.00403 | -13.45546 | 34921 ft | 478 kts | 27° |
| 2026-04-24 20:47 | 20.05776 | -13.41364 | 34922 ft | 479 kts | 27° |
| 2026-04-24 20:47 | 20.11163 | -13.37162 | 34920 ft | 480 kts | 27° |
| 2026-04-24 20:48 | 20.16539 | -13.32943 | 34921 ft | 481 kts | 27° |
| 2026-04-24 20:48 | 20.21921 | -13.28722 | 34925 ft | 481 kts | 27° |
| 2026-04-24 20:49 | 20.27314 | -13.24502 | 34928 ft | 481 kts | 27° |
| 2026-04-24 20:49 | 20.32711 | -13.20260 | 34930 ft | 482 kts | 27° |
| 2026-04-24 20:50 | 20.38113 | -13.16017 | 34930 ft | 483 kts | 27° |
| 2026-04-24 20:50 | 20.43518 | -13.11762 | 34931 ft | 483 kts | 27° |
| 2026-04-24 20:51 | 20.49001 | -13.07696 | 34932 ft | 472 kts | 19° |
| 2026-04-24 20:51 | 20.51950 | -13.06264 | 34931 ft | 460 kts | 9° |
| 2026-04-24 20:51 | 20.54948 | -13.05340 | 34929 ft | 451 kts | 4° |
| 2026-04-24 20:52 | 20.61053 | -13.03759 | 34926 ft | 452 kts | 4° |
| 2026-04-24 20:52 | 20.67162 | -13.02154 | 34926 ft | 452 kts | 4° |
| 2026-04-24 20:53 | 20.73271 | -13.00524 | 34924 ft | 453 kts | 4° |
| 2026-04-24 20:53 | 20.79390 | -12.98896 | 34923 ft | 453 kts | 4° |
| 2026-04-24 20:54 | 20.85513 | -12.97274 | 34921 ft | 453 kts | 4° |
| 2026-04-24 20:54 | 20.91636 | -12.95649 | 34914 ft | 454 kts | 4° |
| 2026-04-24 20:55 | 20.97769 | -12.94023 | 34917 ft | 454 kts | 4° |
| 2026-04-24 20:55 | 21.03907 | -12.92394 | 34925 ft | 454 kts | 4° |
| 2026-04-24 20:56 | 21.10046 | -12.90767 | 34943 ft | 455 kts | 4° |
| 2026-04-24 20:56 | 21.16195 | -12.89126 | 34955 ft | 455 kts | 4° |
| 2026-04-24 20:57 | 21.22350 | -12.87490 | 34962 ft | 455 kts | 4° |
| 2026-04-24 20:57 | 21.28502 | -12.85851 | 34968 ft | 456 kts | 4° |
| 2026-04-24 20:58 | 21.34664 | -12.84201 | 34974 ft | 456 kts | 4° |
| 2026-04-24 20:58 | 21.40784 | -12.82567 | 34979 ft | 457 kts | 4° |
| 2026-04-24 20:59 | 21.46949 | -12.80924 | 34981 ft | 457 kts | 4° |
| 2026-04-24 20:59 | 21.53121 | -12.79278 | 34982 ft | 457 kts | 4° |
| 2026-04-24 21:00 | 21.59294 | -12.77628 | 34984 ft | 457 kts | 4° |
| 2026-04-24 21:00 | 21.65463 | -12.75977 | 34985 ft | 457 kts | 4° |
| 2026-04-24 21:01 | 21.71642 | -12.74323 | 34985 ft | 458 kts | 4° |
| 2026-04-24 21:01 | 21.77828 | -12.72656 | 34995 ft | 458 kts | 4° |
| 2026-04-24 21:02 | 21.84007 | -12.70995 | 34993 ft | 458 kts | 4° |
| 2026-04-24 21:02 | 21.90208 | -12.69337 | 35003 ft | 458 kts | 4° |
| 2026-04-24 21:03 | 21.96402 | -12.67676 | 35004 ft | 459 kts | 4° |
| 2026-04-24 21:03 | 22.02599 | -12.66004 | 35004 ft | 459 kts | 4° |
| 2026-04-24 21:04 | 22.08754 | -12.64342 | 35004 ft | 459 kts | 4° |
| 2026-04-24 21:04 | 22.14955 | -12.62676 | 35004 ft | 459 kts | 4° |
| 2026-04-24 21:05 | 22.21157 | -12.61000 | 35003 ft | 459 kts | 4° |
| 2026-04-24 21:05 | 22.27356 | -12.59318 | 35004 ft | 459 kts | 4° |
| 2026-04-24 21:06 | 22.33553 | -12.57639 | 34999 ft | 459 kts | 4° |
| 2026-04-24 21:06 | 22.39753 | -12.55958 | 35003 ft | 459 kts | 4° |
| 2026-04-24 21:07 | 22.45949 | -12.54281 | 35011 ft | 459 kts | 4° |
| 2026-04-24 21:07 | 22.52145 | -12.52604 | 35008 ft | 459 kts | 4° |
| 2026-04-24 21:08 | 22.57294 | -12.51207 | 35013 ft | 459 kts | 5° |
| 2026-04-24 21:08 | 22.64497 | -12.49254 | 35015 ft | 459 kts | 4° |
| 2026-04-24 21:09 | 22.69687 | -12.47843 | 35016 ft | 459 kts | 5° |
| 2026-04-24 21:09 | 22.75839 | -12.46161 | 35014 ft | 459 kts | 5° |
| 2026-04-24 21:10 | 22.81992 | -12.44138 | 35015 ft | 465 kts | 9° |
| 2026-04-24 21:10 | 22.88110 | -12.41796 | 35017 ft | 466 kts | 11° |
| 2026-04-24 21:11 | 22.94220 | -12.39448 | 35016 ft | 465 kts | 10° |
| 2026-04-24 21:11 | 23.00336 | -12.37198 | 35019 ft | 464 kts | 9° |
| 2026-04-24 21:12 | 23.06461 | -12.35001 | 35017 ft | 464 kts | 9° |
| 2026-04-24 21:12 | 23.12584 | -12.32772 | 35013 ft | 464 kts | 9° |
| 2026-04-24 21:13 | 23.18709 | -12.30521 | 35010 ft | 464 kts | 9° |
| 2026-04-24 21:13 | 23.24830 | -12.28276 | 35012 ft | 465 kts | 9° |
| 2026-04-24 21:14 | 23.30954 | -12.26039 | 35010 ft | 464 kts | 9° |
| 2026-04-24 21:14 | 23.37070 | -12.23795 | 35006 ft | 463 kts | 10° |
| 2026-04-24 21:15 | 23.43180 | -12.21557 | 35002 ft | 463 kts | 9° |
| 2026-04-24 21:15 | 23.49288 | -12.19310 | 35006 ft | 463 kts | 9° |
| 2026-04-24 21:16 | 23.55399 | -12.17060 | 35000 ft | 464 kts | 10° |
| 2026-04-24 21:16 | 23.61474 | -12.14816 | 35005 ft | 464 kts | 10° |
| 2026-04-24 21:17 | 23.67595 | -12.12560 | 35009 ft | 464 kts | 10° |
| 2026-04-24 21:17 | 23.73721 | -12.10307 | 35015 ft | 464 kts | 10° |
| 2026-04-24 21:18 | 23.79849 | -12.08044 | 35020 ft | 465 kts | 10° |
| 2026-04-24 21:18 | 23.85971 | -12.05774 | 35030 ft | 465 kts | 10° |
| 2026-04-24 21:19 | 23.92091 | -12.03516 | 35041 ft | 464 kts | 10° |